Time;durP1;ratioP1;P1;durP2;ratioP2;P2;SDS_P1;SDS_P2;PMS_P1;PMS_P2;Temp;Humidity;BMP_temperature;BMP_pressure;BME280_temperature;BME280_humidity;BME280_pressure;Samples;Min_cycle;Max_cycle;Signal;HPM_P1;HPM_P2
2023/06/17 00:01:07;;;;;;;4.85;3.70;;;20.50;45.00;;;;;;5100543;28;20027;-73
2023/06/17 00:03:33;;;;;;;4.88;3.83;;;20.40;45.00;;;;;;5135352;28;20045;-73
2023/06/17 00:05:58;;;;;;;8.20;3.72;;;20.30;45.50;;;;;;5117383;28;20035;-73
2023/06/17 00:08:24;;;;;;;5.65;3.92;;;20.30;45.90;;;;;;5135231;28;20031;-73
2023/06/17 00:10:50;;;;;;;5.57;3.92;;;20.30;46.30;;;;;;5099223;28;20032;-73
2023/06/17 00:13:19;;;;;;;4.95;3.97;;;20.20;46.40;;;;;;5135126;28;20024;-73
2023/06/17 00:15:47;;;;;;;4.43;3.65;;;20.10;46.30;;;;;;5117877;28;20027;-73
2023/06/17 00:18:13;;;;;;;5.47;3.33;;;20.10;46.10;;;;;;5083881;28;20028;-73
2023/06/17 00:20:39;;;;;;;4.57;3.75;;;20.10;45.80;;;;;;5134953;28;20023;-73
2023/06/17 00:23:06;;;;;;;5.05;3.67;;;20.10;46.70;;;;;;5134918;28;20040;-73
2023/06/17 00:25:32;;;;;;;6.32;4.30;;;20.20;45.20;;;;;;5134891;28;20015;-72
2023/06/17 00:27:57;;;;;;;5.88;3.63;;;20.10;45.90;;;;;;5116989;28;20051;-73
2023/06/17 00:30:23;;;;;;;6.65;3.83;;;20.00;47.30;;;;;;5100004;28;20023;-73
2023/06/17 00:32:49;;;;;;;6.68;4.22;;;19.90;47.70;;;;;;5116822;28;20020;-72
2023/06/17 00:35:14;;;;;;;5.05;3.92;;;19.90;47.50;;;;;;5134643;28;20490;-73
2023/06/17 00:37:40;;;;;;;9.35;4.22;;;19.70;47.40;;;;;;5099683;28;20035;-73
2023/06/17 00:40:08;;;;;;;5.55;3.97;;;19.70;48.70;;;;;;5134384;28;20028;-73
2023/06/17 00:42:34;;;;;;;6.38;4.20;;;19.60;49.00;;;;;;5134448;28;20107;-73
2023/06/17 00:45:00;;;;;;;6.22;3.97;;;19.50;49.40;;;;;;5134515;28;20024;-73
2023/06/17 00:47:26;;;;;;;6.80;4.28;;;19.40;50.20;;;;;;5116500;28;20039;-73
2023/06/17 00:49:53;;;;;;;9.02;4.00;;;19.40;50.70;;;;;;5099643;28;20058;-73
2023/06/17 00:52:20;;;;;;;8.35;4.35;;;19.40;51.10;;;;;;5116371;28;20027;-73
2023/06/17 00:54:46;;;;;;;4.72;3.83;;;19.40;50.70;;;;;;5099741;28;20034;-73
2023/06/17 00:57:15;;;;;;;8.40;3.78;;;19.20;50.60;;;;;;5099399;28;20028;-73
2023/06/17 00:59:42;;;;;;;5.95;3.95;;;19.20;50.10;;;;;;5134224;28;20038;-73
2023/06/17 01:02:11;;;;;;;6.25;4.10;;;19.30;50.10;;;;;;5099302;28;20030;-73
2023/06/17 01:04:38;;;;;;;7.90;4.20;;;19.40;49.60;;;;;;5116201;28;20055;-73
2023/06/17 01:07:12;;;;;;;6.50;4.30;;;19.40;49.70;;;;;;5134145;28;20031;-73
2023/06/17 01:09:45;;;;;;;5.80;4.15;;;19.40;50.00;;;;;;5116172;28;20050;-73
2023/06/17 01:12:14;;;;;;;6.13;4.00;;;19.20;49.50;;;;;;5134191;28;20019;-73
2023/06/17 01:14:41;;;;;;;6.07;4.70;;;19.20;49.50;;;;;;5134143;28;20076;-73
2023/06/17 01:17:12;;;;;;;6.57;4.43;;;19.10;49.50;;;;;;5099443;28;20062;-72
2023/06/17 01:19:39;;;;;;;9.13;4.78;;;19.10;50.00;;;;;;5134037;28;20053;-72
2023/06/17 01:22:10;;;;;;;5.50;4.30;;;19.10;50.60;;;;;;5133628;28;20551;-73
2023/06/17 01:24:37;;;;;;;7.85;4.50;;;19.10;50.80;;;;;;5134059;28;20047;-73
2023/06/17 01:27:03;;;;;;;7.28;4.35;;;19.10;51.00;;;;;;5133942;28;20052;-73
2023/06/17 01:29:39;;;;;;;8.65;4.45;;;19.00;51.10;;;;;;5133791;28;20031;-73
2023/06/17 01:32:06;;;;;;;7.00;4.70;;;18.90;51.40;;;;;;5100010;28;20050;-73
2023/06/17 01:34:40;;;;;;;8.30;4.68;;;18.80;51.40;;;;;;5115880;28;20028;-73
2023/06/17 01:37:11;;;;;;;8.88;4.97;;;18.90;51.40;;;;;;5134011;28;20020;-73
2023/06/17 01:39:39;;;;;;;9.23;4.82;;;18.90;50.80;;;;;;5115807;28;20020;-73
2023/06/17 01:42:09;;;;;;;6.45;4.47;;;18.90;50.60;;;;;;5133480;28;20047;-73
2023/06/17 01:44:35;;;;;;;7.90;5.00;;;18.90;50.60;;;;;;5133838;28;20016;-73
2023/06/17 01:47:03;;;;;;;6.20;4.78;;;18.90;50.50;;;;;;5133790;28;20065;-73
2023/06/17 01:49:29;;;;;;;7.85;4.70;;;18.80;50.90;;;;;;5116142;28;20032;-73
2023/06/17 01:51:54;;;;;;;9.63;4.78;;;18.80;51.30;;;;;;5115819;28;20030;-73
2023/06/17 01:54:20;;;;;;;7.32;5.07;;;18.70;51.50;;;;;;5133715;28;20032;-73
2023/06/17 01:56:46;;;;;;;6.97;5.13;;;18.70;51.40;;;;;;5098786;28;20036;-73
2023/06/17 01:59:12;;;;;;;6.95;4.85;;;18.70;51.20;;;;;;5133607;28;20020;-73
2023/06/17 02:01:37;;;;;;;7.07;4.95;;;18.60;51.30;;;;;;5115833;28;20424;-73
2023/06/17 02:04:03;;;;;;;9.25;4.93;;;18.70;51.50;;;;;;5133742;28;20459;-73
2023/06/17 02:06:28;;;;;;;7.15;4.85;;;18.60;51.60;;;;;;5133594;28;20024;-73
2023/06/17 02:08:55;;;;;;;7.97;4.93;;;18.60;51.70;;;;;;5133589;28;20098;-73
2023/06/17 02:11:21;;;;;;;9.02;5.18;;;18.60;51.70;;;;;;5115574;28;20034;-74
2023/06/17 02:13:47;;;;;;;9.68;5.45;;;18.60;51.90;;;;;;5133628;28;20028;-73
2023/06/17 02:16:12;;;;;;;8.27;5.18;;;18.50;52.20;;;;;;5133482;28;20042;-74
2023/06/17 02:18:39;;;;;;;8.80;5.10;;;18.40;53.00;;;;;;5115327;28;20016;-73
2023/06/17 02:21:05;;;;;;;8.85;5.50;;;18.10;53.70;;;;;;5115407;28;20046;-73
2023/06/17 02:23:30;;;;;;;9.32;5.75;;;18.10;54.20;;;;;;5115353;28;20012;-74
2023/06/17 02:25:57;;;;;;;9.43;5.13;;;18.10;54.90;;;;;;5115463;28;20479;-74
2023/06/17 02:28:22;;;;;;;8.57;5.40;;;18.10;54.30;;;;;;5133388;28;20032;-74
2023/06/17 02:30:49;;;;;;;8.05;5.50;;;18.10;54.40;;;;;;5133366;28;20032;-74
2023/06/17 02:33:18;;;;;;;7.05;5.50;;;18.10;54.30;;;;;;5115479;28;20466;-74
2023/06/17 02:35:44;;;;;;;6.35;4.93;;;18.10;54.30;;;;;;5136492;28;20020;-74
2023/06/17 02:38:10;;;;;;;9.50;5.82;;;18.10;54.10;;;;;;5136968;28;20050;-74
2023/06/17 02:40:36;;;;;;;8.00;5.10;;;18.10;54.60;;;;;;5119096;28;20020;-73
2023/06/17 02:43:02;;;;;;;7.30;5.53;;;18.10;54.80;;;;;;5118768;28;20059;-73
2023/06/17 02:45:27;;;;;;;8.07;5.53;;;18.10;54.80;;;;;;5101952;28;20024;-73
2023/06/17 02:47:53;;;;;;;8.02;5.50;;;18.10;54.80;;;;;;5118833;28;20016;-74
2023/06/17 02:50:23;;;;;;;7.30;5.40;;;18.00;55.20;;;;;;5136768;28;20087;-74
2023/06/17 02:52:55;;;;;;;8.35;5.65;;;18.00;56.20;;;;;;5136713;28;20044;-73
2023/06/17 02:55:25;;;;;;;8.00;6.05;;;17.90;55.70;;;;;;5136744;28;20022;-73
2023/06/17 02:57:51;;;;;;;9.23;6.22;;;17.90;56.00;;;;;;5118739;28;20409;-74
2023/06/17 03:00:17;;;;;;;11.90;6.30;;;17.80;56.10;;;;;;5136564;28;20027;-73
2023/06/17 03:02:43;;;;;;;15.00;5.80;;;17.80;56.50;;;;;;5118629;28;20024;-73
2023/06/17 03:05:09;;;;;;;10.70;6.13;;;17.70;56.70;;;;;;5101888;28;20028;-73
2023/06/17 03:07:36;;;;;;;10.20;6.22;;;17.70;56.90;;;;;;5136466;28;20040;-74
2023/06/17 03:10:03;;;;;;;9.13;5.50;;;17.60;57.10;;;;;;5136458;28;20434;-73
2023/06/17 03:12:28;;;;;;;9.73;5.75;;;17.50;57.70;;;;;;5136269;28;20378;-73
2023/06/17 03:14:54;;;;;;;8.82;5.63;;;17.50;57.70;;;;;;5101429;28;20095;-73
2023/06/17 03:17:21;;;;;;;8.00;5.47;;;17.50;57.60;;;;;;5118510;28;20019;-73
2023/06/17 03:19:47;;;;;;;9.95;5.95;;;17.50;57.60;;;;;;5136128;28;20029;-73
2023/06/17 03:22:12;;;;;;;9.40;6.28;;;17.50;57.40;;;;;;5136166;28;20057;-73
2023/06/17 03:24:38;;;;;;;11.20;6.15;;;17.40;57.40;;;;;;5118206;28;20031;-73
2023/06/17 03:27:04;;;;;;;14.40;6.10;;;17.40;57.70;;;;;;5136048;28;20447;-73
2023/06/17 03:29:30;;;;;;;10.73;6.40;;;17.50;58.00;;;;;;5136028;28;20023;-73
2023/06/17 03:31:57;;;;;;;12.57;6.60;;;17.50;58.10;;;;;;5117959;28;20020;-74
2023/06/17 03:34:23;;;;;;;10.75;6.53;;;17.50;58.20;;;;;;5118110;28;20024;-73
2023/06/17 03:36:50;;;;;;;10.45;6.53;;;17.50;58.70;;;;;;5135881;28;20028;-73
2023/06/17 03:39:15;;;;;;;10.48;6.25;;;17.50;60.10;;;;;;5118003;28;20024;-74
2023/06/17 03:41:41;;;;;;;9.95;6.47;;;17.50;59.20;;;;;;5117719;28;20061;-74
2023/06/17 03:44:07;;;;;;;10.38;6.40;;;17.30;59.90;;;;;;5117969;28;20024;-73
2023/06/17 03:46:32;;;;;;;10.90;6.60;;;17.30;60.30;;;;;;5117428;28;20084;-74
2023/06/17 03:48:58;;;;;;;10.55;6.45;;;17.20;60.30;;;;;;5117641;28;20032;-74
2023/06/17 03:51:23;;;;;;;13.88;6.28;;;17.30;60.50;;;;;;5117691;28;20034;-74
2023/06/17 03:53:49;;;;;;;10.73;6.80;;;17.30;60.50;;;;;;5100473;28;20099;-74
2023/06/17 03:56:14;;;;;;;9.10;6.07;;;17.30;60.20;;;;;;5135622;28;20054;-74
2023/06/17 03:58:40;;;;;;;10.18;6.97;;;17.30;59.80;;;;;;5135340;28;20038;-74
2023/06/17 04:01:07;;;;;;;18.38;7.13;;;17.30;59.40;;;;;;5135543;28;20028;-74
2023/06/17 04:03:34;;;;;;;12.60;6.90;;;17.20;59.70;;;;;;5135345;28;20020;-74
2023/06/17 04:06:01;;;;;;;10.57;6.60;;;17.10;60.00;;;;;;5135317;28;20019;-74
2023/06/17 04:08:27;;;;;;;10.60;7.28;;;17.20;60.20;;;;;;5135153;28;20027;-75
2023/06/17 04:10:53;;;;;;;10.05;7.20;;;17.30;60.40;;;;;;5135167;28;20023;-74
2023/06/17 04:13:18;;;;;;;11.60;6.88;;;17.30;60.50;;;;;;5135147;28;20030;-74
2023/06/17 04:15:47;;;;;;;10.13;7.45;;;17.30;60.30;;;;;;5117298;28;20032;-73
2023/06/17 04:18:13;;;;;;;10.55;6.93;;;17.30;60.50;;;;;;5134986;28;20067;-74
2023/06/17 04:20:40;;;;;;;9.32;6.95;;;17.10;61.10;;;;;;5117147;28;20053;-74
2023/06/17 04:23:05;;;;;;;11.63;8.02;;;17.00;61.20;;;;;;5134922;28;20016;-74
2023/06/17 04:25:32;;;;;;;12.07;7.45;;;17.00;61.60;;;;;;5116777;28;20012;-74
2023/06/17 04:28:01;;;;;;;11.85;7.88;;;17.00;61.60;;;;;;5134875;28;20015;-74
2023/06/17 04:30:26;;;;;;;14.05;8.35;;;17.10;61.70;;;;;;5134776;28;20050;-74
2023/06/17 04:32:55;;;;;;;12.73;8.40;;;17.10;62.20;;;;;;5134773;28;20028;-74
2023/06/17 04:35:21;;;;;;;11.57;8.07;;;17.10;63.40;;;;;;5117253;28;20024;-74
2023/06/17 04:37:53;;;;;;;13.27;7.18;;;17.10;62.70;;;;;;5134706;28;20020;-74
2023/06/17 04:40:20;;;;;;;12.02;7.32;;;17.30;62.70;;;;;;5117728;28;20023;-74
2023/06/17 04:42:47;;;;;;;16.15;8.73;;;17.30;62.70;;;;;;5134439;28;20050;-74
2023/06/17 04:45:13;;;;;;;12.40;8.23;;;17.40;62.80;;;;;;5134573;28;20079;-74
2023/06/17 04:47:38;;;;;;;14.30;8.77;;;17.40;63.00;;;;;;5134642;28;20023;-74
2023/06/17 04:50:05;;;;;;;13.38;8.93;;;17.50;63.50;;;;;;5134463;28;20035;-74
2023/06/17 04:52:31;;;;;;;12.77;8.90;;;17.60;63.80;;;;;;5134479;28;20034;-74
2023/06/17 04:54:56;;;;;;;17.38;9.65;;;17.60;63.90;;;;;;5134375;28;20028;-74
2023/06/17 04:57:22;;;;;;;14.35;9.30;;;17.70;64.00;;;;;;5115706;28;20031;-74
2023/06/17 04:59:48;;;;;;;16.38;10.00;;;17.70;64.30;;;;;;5116279;28;20054;-74
2023/06/17 05:02:14;;;;;;;15.82;9.90;;;17.70;65.00;;;;;;5134269;28;20028;-74
2023/06/17 05:04:40;;;;;;;17.77;11.27;;;17.70;65.80;;;;;;5134231;28;20481;-74
2023/06/17 05:07:06;;;;;;;15.68;10.63;;;17.80;66.40;;;;;;5116235;28;20027;-73
2023/06/17 05:09:31;;;;;;;17.60;11.45;;;17.80;66.50;;;;;;5116321;28;20051;-74
2023/06/17 05:11:57;;;;;;;16.95;10.90;;;17.90;66.50;;;;;;5134144;28;20031;-74
2023/06/17 05:14:22;;;;;;;17.15;11.07;;;18.00;66.90;;;;;;5099366;28;20038;-74
2023/06/17 05:16:48;;;;;;;18.90;11.30;;;18.00;67.60;;;;;;5134096;28;20036;-74
2023/06/17 05:19:14;;;;;;;15.73;11.57;;;18.00;67.90;;;;;;5133980;28;20031;-73
2023/06/17 05:21:39;;;;;;;18.27;12.07;;;18.10;68.70;;;;;;5116166;28;20047;-75
2023/06/17 05:24:05;;;;;;;17.75;11.48;;;18.00;68.60;;;;;;5099078;28;20057;-75
2023/06/17 05:26:31;;;;;;;18.15;12.40;;;18.10;68.80;;;;;;5133991;28;20023;-74
2023/06/17 05:28:57;;;;;;;20.75;12.05;;;18.20;69.00;;;;;;5116070;28;20039;-73
2023/06/17 05:31:22;;;;;;;19.63;12.65;;;18.30;68.60;;;;;;5133965;28;20024;-74
2023/06/17 05:33:48;;;;;;;18.38;12.00;;;18.30;68.60;;;;;;5133835;28;20028;-75
2023/06/17 05:36:14;;;;;;;21.38;13.23;;;18.40;69.00;;;;;;5133899;28;20030;-74
2023/06/17 05:38:39;;;;;;;17.25;11.95;;;18.40;68.80;;;;;;5115891;28;20051;-74
2023/06/17 05:41:05;;;;;;;19.90;12.55;;;18.50;68.50;;;;;;5133832;28;20024;-75
2023/06/17 05:43:31;;;;;;;20.90;13.07;;;18.60;68.60;;;;;;5115886;28;20104;-75
2023/06/17 05:45:56;;;;;;;18.75;12.88;;;18.70;68.40;;;;;;5116001;28;20031;-75
2023/06/17 05:48:22;;;;;;;20.58;13.25;;;18.70;68.20;;;;;;5115814;28;20028;-75
2023/06/17 05:50:48;;;;;;;19.08;12.20;;;18.80;68.10;;;;;;5098828;28;20024;-75
2023/06/17 05:53:15;;;;;;;17.80;12.75;;;18.90;67.90;;;;;;5133743;28;20020;-76
2023/06/17 05:55:40;;;;;;;17.15;12.35;;;19.00;67.80;;;;;;5133808;28;20039;-74
2023/06/17 05:58:06;;;;;;;18.48;12.57;;;19.10;67.70;;;;;;5115452;28;20057;-74
2023/06/17 06:00:31;;;;;;;17.88;12.20;;;19.10;67.70;;;;;;5098867;28;20020;-76
2023/06/17 06:02:57;;;;;;;17.40;12.38;;;19.20;67.90;;;;;;5115621;28;20488;-75
2023/06/17 06:05:22;;;;;;;18.38;12.55;;;19.20;67.90;;;;;;5115743;28;20091;-75
2023/06/17 06:07:48;;;;;;;17.73;11.85;;;19.30;67.70;;;;;;5133824;28;20023;-76
2023/06/17 06:10:14;;;;;;;18.02;12.27;;;19.40;67.70;;;;;;5137586;28;20063;-75
2023/06/17 06:12:40;;;;;;;17.90;12.25;;;19.40;67.70;;;;;;5137516;28;20047;-75
2023/06/17 06:15:06;;;;;;;17.05;12.38;;;19.50;67.60;;;;;;5119555;28;20047;-74
2023/06/17 06:17:33;;;;;;;18.77;12.73;;;19.50;68.20;;;;;;5137578;28;20087;-74
2023/06/17 06:19:58;;;;;;;18.35;12.27;;;19.60;68.40;;;;;;5137304;28;20080;-75
2023/06/17 06:22:24;;;;;;;18.48;12.05;;;19.60;68.20;;;;;;5137347;28;20462;-75
2023/06/17 06:24:50;;;;;;;18.58;12.70;;;19.70;67.90;;;;;;5137322;28;20027;-74
2023/06/17 06:27:15;;;;;;;16.50;11.77;;;19.80;67.90;;;;;;5119322;28;20059;-74
2023/06/17 06:29:41;;;;;;;19.88;12.43;;;19.80;67.90;;;;;;5137234;28;20028;-75
2023/06/17 06:32:07;;;;;;;16.73;12.30;;;19.80;67.90;;;;;;5119229;28;20140;-74
2023/06/17 06:34:33;;;;;;;17.10;11.90;;;19.90;68.00;;;;;;5119176;28;20047;-75
2023/06/17 06:36:59;;;;;;;17.15;12.63;;;19.90;67.90;;;;;;5137063;28;20032;-76
2023/06/17 06:39:26;;;;;;;18.60;13.02;;;20.00;68.30;;;;;;5137034;28;20028;-75
2023/06/17 06:41:52;;;;;;;19.08;12.45;;;20.00;68.20;;;;;;5136776;28;20032;-75
2023/06/17 06:44:18;;;;;;;22.80;13.05;;;20.10;67.90;;;;;;5118869;28;20019;-74
2023/06/17 06:46:44;;;;;;;15.18;11.98;;;20.10;67.70;;;;;;5118776;28;20026;-76
2023/06/17 06:49:09;;;;;;;18.58;11.90;;;20.20;67.40;;;;;;5102004;28;20032;-75
2023/06/17 06:51:36;;;;;;;17.27;11.55;;;20.20;67.50;;;;;;5101966;28;20036;-76
2023/06/17 06:54:02;;;;;;;15.38;10.95;;;20.30;67.20;;;;;;5136717;28;20031;-75
2023/06/17 06:56:27;;;;;;;16.83;11.30;;;20.30;66.60;;;;;;5136717;28;20030;-74
2023/06/17 06:58:56;;;;;;;18.27;10.82;;;20.40;66.30;;;;;;5136569;28;20036;-74
2023/06/17 07:01:22;;;;;;;14.60;10.70;;;20.40;65.90;;;;;;5102018;28;20020;-74
2023/06/17 07:03:48;;;;;;;14.15;10.27;;;20.50;65.30;;;;;;5136548;28;20020;-74
2023/06/17 07:06:13;;;;;;;14.60;10.00;;;20.50;64.10;;;;;;5136521;28;20038;-74
2023/06/17 07:08:39;;;;;;;14.85;10.13;;;20.60;63.40;;;;;;5136558;28;20039;-75
2023/06/17 07:11:05;;;;;;;15.05;9.77;;;20.60;63.10;;;;;;5136422;28;20026;-74
2023/06/17 07:13:31;;;;;;;12.43;9.43;;;20.70;63.10;;;;;;5118553;28;20032;-74
2023/06/17 07:15:56;;;;;;;15.45;9.88;;;20.70;62.70;;;;;;5136430;28;20027;-75
2023/06/17 07:18:22;;;;;;;12.40;9.10;;;20.80;62.30;;;;;;5101383;28;20053;-74
2023/06/17 07:20:49;;;;;;;16.48;10.60;;;20.90;61.70;;;;;;5135585;28;20020;-75
2023/06/17 07:23:15;;;;;;;18.38;11.57;;;20.90;61.60;;;;;;5136196;28;20032;-74
2023/06/17 07:25:40;;;;;;;14.45;9.32;;;20.90;61.30;;;;;;5136132;28;20050;-76
2023/06/17 07:28:07;;;;;;;12.30;9.10;;;21.00;61.00;;;;;;5136096;28;20490;-74
2023/06/17 07:30:33;;;;;;;15.20;9.80;;;21.00;59.70;;;;;;5118268;28;20027;-74
2023/06/17 07:32:59;;;;;;;14.50;9.70;;;21.10;59.80;;;;;;5136004;28;20041;-74
2023/06/17 07:35:25;;;;;;;13.48;8.25;;;21.20;60.00;;;;;;5135846;28;20028;-76
2023/06/17 07:37:51;;;;;;;11.38;7.65;;;21.20;59.10;;;;;;5135890;28;20008;-75
2023/06/17 07:40:17;;;;;;;10.32;7.55;;;21.30;59.30;;;;;;5135811;28;20095;-75
2023/06/17 07:42:43;;;;;;;12.02;8.07;;;21.40;57.70;;;;;;5100444;28;20055;-75
2023/06/17 07:45:09;;;;;;;11.50;8.40;;;21.50;57.20;;;;;;5135752;28;20114;-75
2023/06/17 07:47:35;;;;;;;14.13;8.68;;;21.50;57.30;;;;;;5135705;28;20023;-75
2023/06/17 07:50:00;;;;;;;13.63;9.15;;;21.60;56.40;;;;;;5117614;28;20065;-74
2023/06/17 07:52:26;;;;;;;12.05;8.55;;;21.60;55.90;;;;;;5117667;28;20020;-75
2023/06/17 07:54:52;;;;;;;11.73;8.23;;;21.60;55.60;;;;;;5117640;28;20536;-76
2023/06/17 07:57:18;;;;;;;13.93;8.65;;;21.70;56.20;;;;;;5117431;28;20023;-75
2023/06/17 07:59:44;;;;;;;11.40;7.78;;;21.80;55.80;;;;;;5135340;28;20024;-75
2023/06/17 08:02:10;;;;;;;12.23;7.32;;;21.80;54.80;;;;;;5117535;28;20024;-75
2023/06/17 08:04:36;;;;;;;11.30;8.15;;;21.90;54.40;;;;;;5117275;28;20032;-75
2023/06/17 08:07:03;;;;;;;10.85;7.78;;;21.80;54.10;;;;;;5117245;28;20083;-76
2023/06/17 08:09:28;;;;;;;14.88;9.05;;;21.90;54.40;;;;;;5100345;28;20024;-75
2023/06/17 08:11:54;;;;;;;12.57;8.43;;;22.00;54.60;;;;;;5117305;28;20035;-75
2023/06/17 08:14:20;;;;;;;9.95;7.40;;;22.10;53.90;;;;;;5117328;28;20023;-77
2023/06/17 08:16:46;;;;;;;8.68;6.95;;;22.20;53.80;;;;;;5100189;28;20043;-76
2023/06/17 08:19:12;;;;;;;10.20;7.50;;;22.30;54.10;;;;;;5099984;28;20095;-76
2023/06/17 08:21:38;;;;;;;10.88;7.53;;;22.40;52.80;;;;;;5100077;28;20019;-76
2023/06/17 08:24:24;;;;;;;12.68;8.07;;;22.40;52.70;;;;;;5117070;28;20027;-76
2023/06/17 08:26:51;;;;;;;11.90;8.40;;;22.50;51.80;;;;;;5134918;28;20056;-76
2023/06/17 08:29:17;;;;;;;11.07;7.65;;;22.40;52.40;;;;;;5134876;28;20020;-76
2023/06/17 08:31:46;;;;;;;13.40;8.43;;;22.40;53.40;;;;;;5115899;28;20036;-76
2023/06/17 08:34:12;;;;;;;11.70;7.82;;;22.40;51.50;;;;;;5100287;28;20024;-76
2023/06/17 08:36:52;;;;;;;12.68;8.40;;;22.40;51.30;;;;;;5134747;28;20039;-76
2023/06/17 08:39:18;;;;;;;13.85;8.65;;;22.40;51.40;;;;;;5134682;28;20020;-76
2023/06/17 08:41:45;;;;;;;11.63;7.80;;;22.40;53.40;;;;;;5099588;28;20038;-77
2023/06/17 08:44:11;;;;;;;12.65;7.82;;;22.50;52.80;;;;;;5116636;28;20024;-76
2023/06/17 08:46:38;;;;;;;10.55;7.82;;;22.60;52.70;;;;;;5116661;28;20107;-76
2023/06/17 08:49:04;;;;;;;9.48;7.63;;;22.60;52.80;;;;;;5134455;28;20028;-76
2023/06/17 08:51:30;;;;;;;13.77;7.72;;;22.70;52.50;;;;;;5116408;28;20032;-76
2023/06/17 08:53:56;;;;;;;12.82;8.10;;;22.90;51.80;;;;;;5116486;28;20570;-76
2023/06/17 08:56:23;;;;;;;11.60;7.63;;;22.90;51.80;;;;;;5116415;28;20016;-76
2023/06/17 08:58:55;;;;;;;10.70;6.80;;;23.00;51.40;;;;;;5116321;28;20023;-77
2023/06/17 09:01:22;;;;;;;;;;;23.10;50.80;;;;;;5117865;28;20023;-78
2023/06/17 09:03:50;;;;;;;8.00;5.47;;;23.20;51.30;;;;;;5134329;28;19947;-76
2023/06/17 09:06:20;;;;;;;7.35;5.53;;;23.30;50.80;;;;;;5134259;28;20100;-77
2023/06/17 09:08:50;;;;;;;9.95;5.63;;;23.40;50.20;;;;;;5116239;28;20023;-77
2023/06/17 09:11:17;;;;;;;9.30;6.43;;;23.50;48.80;;;;;;5116351;28;20366;-77
2023/06/17 09:13:50;;;;;;;7.65;5.07;;;23.60;46.90;;;;;;5116382;28;20035;-76
2023/06/17 09:16:24;;;;;;;;;;;23.60;48.10;;;;;;5134579;28;20051;-76
2023/06/17 09:18:57;;;;;;;7.82;5.13;;;23.70;46.40;;;;;;5134171;28;19908;-75
2023/06/17 09:21:24;;;;;;;6.65;5.43;;;23.70;46.40;;;;;;5116016;28;20018;-76
2023/06/17 09:24:00;;;;;;;8.65;5.63;;;23.80;47.20;;;;;;5116171;28;20020;-76
2023/06/17 09:26:31;;;;;;;7.60;5.00;;;23.90;45.20;;;;;;5099063;28;20020;-76
2023/06/17 09:29:05;;;;;;;8.57;4.80;;;23.90;45.10;;;;;;5099155;28;20050;-76
2023/06/17 09:31:33;;;;;;;9.55;5.40;;;24.00;45.20;;;;;;5116011;28;20019;-76
2023/06/17 09:34:03;;;;;;;8.48;5.25;;;24.10;45.10;;;;;;5133874;28;20079;-76
2023/06/17 09:36:29;;;;;;;10.43;5.75;;;24.30;45.70;;;;;;5115813;28;20035;-76
2023/06/17 09:38:55;;;;;;;8.25;5.40;;;24.40;44.40;;;;;;5115714;28;20031;-76
2023/06/17 09:41:23;;;;;;;8.15;5.70;;;24.50;45.10;;;;;;5115796;28;20080;-76
2023/06/17 09:43:53;;;;;;;6.88;4.90;;;24.60;43.30;;;;;;5117696;28;20040;-76
2023/06/17 09:46:35;;;;;;;6.70;4.60;;;24.60;42.50;;;;;;5138082;28;20152;-75
2023/06/17 09:49:06;;;;;;;;;;;24.70;42.80;;;;;;5122529;28;20096;-76
2023/06/17 09:51:37;;;;;;;9.77;5.88;;;24.80;43.10;;;;;;5138012;28;19910;-76
2023/06/17 09:54:04;;;;;;;8.90;4.75;;;24.80;43.60;;;;;;5120854;28;20063;-76
2023/06/17 09:56:31;;;;;;;6.00;4.28;;;25.00;43.10;;;;;;5119811;28;20035;-75
2023/06/17 09:58:57;;;;;;;6.82;4.70;;;25.10;43.10;;;;;;5102675;28;20030;-76
2023/06/17 10:01:30;;;;;;;6.32;4.43;;;25.10;42.60;;;;;;5102824;28;20240;-75
2023/06/17 10:03:57;;;;;;;7.43;4.32;;;25.20;41.20;;;;;;5137891;28;20023;-76
2023/06/17 10:06:24;;;;;;;5.63;4.30;;;25.20;40.30;;;;;;5102754;28;20020;-75
2023/06/17 10:08:51;;;;;;;7.07;4.55;;;25.30;40.40;;;;;;5102781;28;20028;-76
2023/06/17 10:11:19;;;;;;;5.45;4.30;;;25.30;39.70;;;;;;5102694;28;20038;-76
2023/06/17 10:14:01;;;;;;;6.10;4.47;;;25.50;39.80;;;;;;5119575;28;20026;-76
2023/06/17 10:16:31;;;;;;;6.53;4.75;;;25.50;39.00;;;;;;5137596;28;20482;-75
2023/06/17 10:19:00;;;;;;;5.93;4.25;;;25.50;38.90;;;;;;5119264;28;20024;-75
2023/06/17 10:21:29;;;;;;;6.07;4.53;;;25.60;39.10;;;;;;5137394;28;20020;-76
2023/06/17 10:23:56;;;;;;;7.00;4.80;;;25.70;39.20;;;;;;5119392;28;20049;-75
2023/06/17 10:26:22;;;;;;;7.30;4.95;;;25.80;39.40;;;;;;5119278;28;20020;-75
2023/06/17 10:28:53;;;;;;;6.63;5.05;;;25.80;38.60;;;;;;5137267;28;20430;-76
2023/06/17 10:31:24;;;;;;;6.77;4.43;;;25.90;38.90;;;;;;5119232;28;20027;-75
2023/06/17 10:33:51;;;;;;;7.30;4.70;;;26.00;38.90;;;;;;5119079;28;20274;-75
2023/06/17 10:36:20;;;;;;;6.60;4.60;;;26.10;38.10;;;;;;5119062;28;20027;-75
2023/06/17 10:38:54;;;;;;;6.68;4.18;;;26.10;39.30;;;;;;5118874;28;20023;-75
2023/06/17 10:41:20;;;;;;;6.72;4.40;;;26.30;39.40;;;;;;5137067;28;20043;-76
2023/06/17 10:43:45;;;;;;;7.85;4.53;;;26.30;38.40;;;;;;5136810;28;20052;-75
2023/06/17 10:46:11;;;;;;;8.52;4.40;;;26.40;37.90;;;;;;5136936;28;20034;-74
2023/06/17 10:48:36;;;;;;;5.97;4.20;;;26.50;38.90;;;;;;5102010;28;20031;-75
2023/06/17 10:51:10;;;;;;;5.60;4.43;;;26.50;36.10;;;;;;5118913;28;20024;-76
2023/06/17 10:53:36;;;;;;;6.45;4.00;;;26.50;37.10;;;;;;5137011;28;20166;-75
2023/06/17 10:56:04;;;;;;;5.57;3.92;;;26.50;37.20;;;;;;5117570;28;20033;-75
2023/06/17 10:58:33;;;;;;;7.15;4.78;;;26.50;36.00;;;;;;5118506;28;20046;-75
2023/06/17 11:01:07;;;;;;;7.18;4.07;;;26.60;36.90;;;;;;5118523;28;20028;-76
2023/06/17 11:03:33;;;;;;;5.32;4.10;;;26.70;37.00;;;;;;5136565;28;20482;-76
2023/06/17 11:06:03;;;;;;;5.57;4.47;;;26.80;36.70;;;;;;5118455;28;20114;-75
2023/06/17 11:08:30;;;;;;;6.53;4.22;;;26.90;36.70;;;;;;5118542;28;20015;-75
2023/06/17 11:11:09;;;;;;;5.38;4.57;;;27.00;37.70;;;;;;5118468;28;20020;-75
2023/06/17 11:13:38;;;;;;;6.55;4.13;;;27.10;35.60;;;;;;5136380;28;20047;-75
2023/06/17 11:16:05;;;;;;;6.65;4.38;;;27.10;35.70;;;;;;5136362;28;20023;-74
2023/06/17 11:18:33;;;;;;;6.47;3.90;;;27.10;35.70;;;;;;5118456;28;20023;-75
2023/06/17 11:20:59;;;;;;;7.18;4.15;;;27.20;36.70;;;;;;5101822;28;20027;-75
2023/06/17 11:23:26;;;;;;;6.43;4.00;;;27.20;36.00;;;;;;5118291;28;20019;-75
2023/06/17 11:25:53;;;;;;;7.15;3.90;;;27.30;34.80;;;;;;5118121;28;20020;-75
2023/06/17 11:28:20;;;;;;;6.35;4.00;;;27.40;34.80;;;;;;5136105;28;20023;-75
2023/06/17 11:30:45;;;;;;;4.88;3.75;;;27.40;33.90;;;;;;5136117;28;20024;-75
2023/06/17 11:33:12;;;;;;;4.72;3.78;;;27.50;33.90;;;;;;5135951;28;20043;-75
2023/06/17 11:35:37;;;;;;;4.70;3.85;;;27.50;33.60;;;;;;5135848;28;20047;-75
2023/06/17 11:38:04;;;;;;;4.95;3.70;;;27.60;33.60;;;;;;5117953;28;20073;-75
2023/06/17 11:40:30;;;;;;;6.28;3.85;;;27.70;33.20;;;;;;5117816;28;20023;-76
2023/06/17 11:42:57;;;;;;;5.15;4.07;;;27.70;33.50;;;;;;5117511;28;20042;-75
2023/06/17 11:45:23;;;;;;;6.25;3.72;;;27.80;32.00;;;;;;5135733;28;20016;-76
2023/06/17 11:47:49;;;;;;;4.80;3.60;;;27.80;32.60;;;;;;5135728;28;20039;-75
2023/06/17 11:50:35;;;;;;;6.43;3.33;;;27.90;32.70;;;;;;5135739;28;20024;-76
2023/06/17 11:53:07;;;;;;;5.25;3.47;;;28.00;32.20;;;;;;5120453;28;20031;-75
2023/06/17 11:55:34;;;;;;;5.32;3.60;;;28.10;31.20;;;;;;5117309;28;20047;-75
2023/06/17 11:58:03;;;;;;;5.38;4.18;;;28.10;31.40;;;;;;5135493;28;20024;-76
2023/06/17 12:00:29;;;;;;;6.15;3.88;;;28.20;32.20;;;;;;5135316;28;20051;-76
2023/06/17 12:02:57;;;;;;;4.55;3.70;;;28.20;31.20;;;;;;5135397;28;20075;-75
2023/06/17 12:05:29;;;;;;;5.45;3.53;;;28.20;31.10;;;;;;5135381;28;20079;-76
2023/06/17 12:08:01;;;;;;;6.60;3.47;;;28.30;30.70;;;;;;5135185;28;20024;-75
2023/06/17 12:10:27;;;;;;;;;;;28.30;31.80;;;;;;5135748;28;20027;-76
2023/06/17 12:12:58;;;;;;;6.50;3.47;;;28.30;30.00;;;;;;5135346;28;19935;-76
2023/06/17 12:15:31;;;;;;;5.32;3.58;;;28.40;30.00;;;;;;5135172;28;20060;-75
2023/06/17 12:18:12;;;;;;;6.53;3.45;;;28.30;29.50;;;;;;5135122;28;20036;-75
2023/06/17 12:20:38;;;;;;;5.75;3.42;;;28.40;30.30;;;;;;5117027;28;20019;-75
2023/06/17 12:23:04;;;;;;;3.75;3.13;;;28.50;30.00;;;;;;5135061;28;20076;-75
2023/06/17 12:25:35;;;;;;;4.60;3.20;;;28.50;30.10;;;;;;5099980;28;20020;-76
2023/06/17 12:28:01;;;;;;;5.18;3.40;;;28.60;30.10;;;;;;5135052;28;20080;-76
2023/06/17 12:30:27;;;;;;;5.65;3.33;;;28.70;29.70;;;;;;5117250;28;20024;-75
2023/06/17 12:32:53;;;;;;;6.75;3.58;;;28.80;29.30;;;;;;5116841;28;20063;-75
2023/06/17 12:35:19;;;;;;;5.35;3.42;;;28.90;29.00;;;;;;5134750;28;20107;-75
2023/06/17 12:37:48;;;;;;;4.82;3.80;;;28.90;29.00;;;;;;5099943;28;20031;-75
2023/06/17 12:40:13;;;;;;;5.68;3.38;;;29.00;28.90;;;;;;5100330;28;20453;-76